Date,TemperatureHighF,TemperatureAvgF,TemperatureLowF,DewpointHighF,DewpointAvgF,DewpointLowF,HumidityHigh,HumidityAvg,HumidityLow,PressureMaxIn,PressureMinIn,WindSpeedMaxMPH,WindSpeedAvgMPH,GustSpeedMaxMPH,PrecipitationSumIn
2013-1-1,49,48,45,49,41,28,99,81,47,0.00,40.00,10,3,17,0.00
2013-1-2,57,49,45,47,42,38,99,80,53,0.00,40.00,10,3,17,0.00
2013-1-3,45,42,35,45,40,27,99,91,67,0.00,40.00,6,2,14,0.00
2013-1-4,54,41,31,28,23,16,86,50,33,0.00,40.00,14,6,25,0.00
2013-1-5,50,42,31,28,24,19,66,49,39,0.00,40.00,11,4,19,0.00
2013-1-6,59,47,41,43,37,29,86,69,55,0.00,40.00,11,4,21,0.00
2013-1-7,55,42,29,32,30,28,99,66,40,0.00,40.00,8,2,16,0.00
2013-1-8,53,38,24,41,33,24,99,83,52,0.00,40.00,4,1,6,0.00
2013-1-9,60,52,46,53,47,41,99,85,74,0.00,40.00,3,1,5,0.00
2013-1-10,68,54,42,56,49,42,99,83,57,0.00,40.00,7,2,11,0.00
2013-1-11,56,50,48,52,49,47,99,98,75,0.00,40.00,5,2,11,0.00
2013-1-12,74,61,51,68,59,50,99,93,66,0.00,40.00,9,3,17,0.00
2013-1-13,69,59,49,65,58,49,99,96,83,0.00,40.00,10,2,17,0.00
2013-1-14,67,61,53,67,59,-100,99,97,99,0.00,40.00,11,3,22,0.00
2013-1-15,54,49,45,54,49,44,99,99,99,0.00,40.00,8,4,15,0.00
2013-1-16,52,47,44,51,47,43,99,99,97,0.00,40.00,5,1,11,0.00
2013-1-17,52,47,37,52,47,36,99,99,98,0.00,40.00,14,4,29,0.00
2013-1-18,56,40,29,36,30,23,99,72,30,0.00,40.00,6,2,11,0.00
2013-1-19,57,39,23,36,27,21,99,68,32,0.00,40.00,8,2,16,0.00
2013-1-20,68,48,31,37,32,27,99,57,32,0.00,40.00,10,2,18,0.00
2013-1-21,65,45,28,36,28,15,99,59,28,0.00,40.00,12,3,20,0.00
2013-1-22,45,36,29,20,12,6,46,37,28,0.00,40.00,14,6,24,0.00
2013-1-23,52,40,27,28,18,6,59,42,35,0.00,40.00,7,4,14,0.00
2013-1-24,50,39,27,32,20,7,99,52,22,0.00,40.00,19,6,34,0.00
2013-1-25,29,26,21,28,19,6,99,78,42,0.00,40.00,12,3,21,0.00
2013-1-26,57,39,23,38,28,23,99,70,32,0.00,40.00,14,4,25,0.00
2013-1-27,33,28,25,30,27,25,99,96,79,0.00,40.00,3,1,6,0.00
2013-1-28,55,49,41,47,42,34,95,78,62,0.00,40.00,11,5,20,0.00
2013-1-29,71,56,38,60,51,38,99,87,67,0.00,40.00,10,2,19,0.00
2013-1-30,69,63,49,67,62,47,99,97,84,0.00,40.00,15,7,33,0.00
2013-1-31,53,46,37,47,25,19,99,47,31,0.00,40.00,11,5,24,0.00
2013-2-1,42,36,29,31,17,9,70,46,32,0.00,40.00,14,6,26,0.00
2013-2-2,46,33,22,37,22,11,99,68,34,0.00,40.00,13,4,21,0.00
2013-2-3,57,41,28,37,29,21,99,67,31,0.00,40.00,12,5,21,0.00
2013-2-4,53,40,29,29,23,17,74,51,36,0.00,40.00,15,4,30,0.00
2013-2-5,67,50,38,41,33,28,80,54,31,0.00,40.00,13,4,26,0.00
2013-2-6,70,49,32,38,33,27,99,60,27,0.00,40.00,9,2,18,0.00
2013-2-7,47,43,36,42,36,28,99,79,52,0.00,40.00,7,-4,15,0.00
2013-2-8,60,48,39,49,39,27,99,75,41,0.00,40.00,16,6,37,0.00
2013-2-9,64,46,34,32,28,24,85,52,28,0.00,40.00,9,3,19,0.00
2013-2-10,58,44,33,44,35,30,99,76,37,0.00,40.00,6,2,16,0.00
2013-2-11,58,51,44,58,51,43,99,99,94,0.00,40.00,11,3,17,0.00
2013-2-12,61,53,45,50,34,26,99,52,29,0.00,40.00,14,3,22,0.00
2013-2-13,52,45,42,48,42,29,99,90,60,0.00,40.00,12,3,21,0.00
2013-2-14,54,43,31,35,31,26,99,64,45,0.00,40.00,9,4,18,0.00
2013-2-15,64,45,27,37,32,26,99,67,33,0.00,40.00,11,3,21,0.00
2013-2-16,44,38,30,36,25,14,99,59,40,0.00,40.00,16,5,29,0.00
2013-2-17,46,34,26,16,12,9,54,40,27,0.00,40.00,18,7,32,0.00
2013-2-18,58,37,20,29,22,13,89,58,33,0.00,40.00,9,2,17,0.00
2013-2-19,53,41,31,42,31,19,99,71,38,0.00,40.00,7,2,14,0.00
2013-2-20,55,44,33,19,15,11,44,32,23,0.00,40.00,11,6,23,0.00
2013-2-21,61,46,26,43,24,11,99,44,26,0.00,40.00,6,2,11,0.00
2013-2-22,42,40,38,42,39,38,99,99,96,0.00,40.00,6,2,10,0.00
2013-2-23,48,42,38,46,41,38,99,98,92,0.00,40.00,6,2,9,0.00
2013-2-24,67,51,36,47,34,23,99,61,26,0.00,40.00,11,4,21,0.00
2013-2-25,49,41,34,33,29,26,93,63,46,0.00,40.00,11,4,22,0.00
2013-2-26,42,37,33,41,36,27,99,98,65,0.00,40.00,11,5,25,0.00
2013-2-27,58,47,33,42,36,30,99,70,45,0.00,40.00,14,5,21,0.00
2013-2-28,53,42,32,35,28,23,94,59,41,0.00,40.00,10,4,18,0.00
2013-3-1,49,41,29,32,29,24,95,63,48,0.00,40.00,9,4,16,0.00
2013-3-2,51,41,33,39,28,19,99,63,38,0.00,40.00,16,5,30,0.00
2013-3-3,45,35,28,21,17,14,58,48,37,0.00,40.00,13,7,26,0.00
2013-3-4,57,42,28,27,20,14,56,41,28,0.00,40.00,14,6,26,0.00
2013-3-5,51,45,38,47,39,27,99,81,52,0.00,40.00,10,3,16,0.00
2013-3-6,45,39,33,42,25,21,99,58,43,0.00,40.00,20,9,36,0.00
2013-3-7,59,42,27,31,26,23,93,57,29,0.00,40.00,11,5,18,0.00
2013-3-8,64,42,24,30,26,22,99,60,27,0.00,40.00,9,2,14,0.00
2013-3-9,66,46,26,36,30,26,99,62,30,0.00,40.00,7,2,10,0.00
2013-3-10,69,50,34,41,37,33,99,67,35,0.00,40.00,8,2,14,0.00
2013-3-11,67,51,41,54,45,37,97,81,63,0.00,40.00,11,2,25,0.00
2013-3-12,66,58,49,44,34,25,67,40,30,0.00,40.00,13,7,24,0.00
2013-3-13,59,47,33,35,26,18,93,47,31,0.00,40.00,14,5,26,0.00
2013-3-14,56,42,29,24,19,15,57,41,27,0.00,40.00,11,4,21,0.00
2013-3-15,71,52,32,43,32,16,69,46,35,0.00,40.00,11,4,27,0.00
2013-3-16,80,67,57,53,46,40,59,48,37,0.00,40.00,14,8,29,0.00
2013-3-17,79,65,50,53,47,41,75,53,40,0.00,40.00,14,5,21,0.00
2013-3-18,49,42,40,43,41,38,99,94,73,0.00,40.00,13,4,18,0.00
2013-3-19,68,52,39,42,31,16,99,55,23,0.00,40.00,16,6,28,0.00
2013-3-20,60,50,44,23,16,9,30,25,21,0.00,40.00,13,5,22,0.00
2013-3-21,49,38,30,30,18,12,68,43,31,0.00,40.00,14,6,29,0.00
2013-3-22,53,39,26,26,21,15,70,50,34,0.00,40.00,11,4,18,0.00
2013-3-23,59,47,41,45,36,25,99,67,45,0.00,40.00,7,2,11,0.00
2013-3-24,45,43,40,45,43,39,99,99,93,0.00,40.00,10,4,19,0.00
2013-3-25,48,41,37,40,27,18,99,61,35,0.00,40.00,11,4,21,0.00
2013-3-26,51,40,33,27,23,19,59,49,38,0.00,40.00,13,7,26,0.00
2013-3-27,57,44,35,28,24,20,65,45,32,0.00,40.00,12,6,23,0.00
2013-3-28,62,47,29,27,24,19,76,43,25,0.00,40.00,12,5,26,0.00
2013-3-29,64,47,28,40,30,20,90,55,30,0.00,40.00,11,3,20,0.00
2013-3-30,68,54,44,51,43,39,99,70,38,0.00,40.00,8,2,17,0.00
2013-3-31,71,56,49,60,52,-100,99,90,56,0.00,40.00,10,3,21,0.00
2013-4-1,74,63,51,58,46,39,99,60,35,0.00,40.00,14,4,21,0.00
2013-4-2,68,57,45,40,35,28,59,44,34,0.00,40.00,8,4,16,0.00
2013-4-3,63,54,47,36,31,25,60,42,34,0.00,40.00,10,3,15,0.00
2013-4-4,50,42,37,39,36,31,99,80,51,0.00,40.00,10,4,19,0.00
2013-4-5,69,51,36,46,40,35,99,72,37,0.00,40.00,9,2,16,0.00
2013-4-6,73,54,34,43,38,34,99,62,29,0.00,40.00,10,2,15,0.00
2013-4-7,73,57,38,50,44,38,99,66,39,0.00,40.00,11,3,27,0.00
2013-4-8,80,64,48,60,54,45,99,71,45,0.00,40.00,12,4,22,0.00
2013-4-9,84,68,51,61,56,49,99,70,44,0.00,40.00,11,3,20,0.00
2013-4-10,86,71,55,63,60,55,99,71,45,0.00,40.00,11,4,21,0.00
2013-4-11,82,70,59,69,64,58,99,82,57,0.00,40.00,9,4,20,0.00
2013-4-12,81,70,60,68,57,38,99,69,32,0.00,40.00,14,6,26,0.00
2013-4-13,80,65,53,50,43,34,68,45,33,0.00,40.00,9,3,16,0.00
2013-4-14,74,59,42,54,46,40,99,66,36,0.00,40.00,7,2,14,0.00
2013-4-15,71,60,55,61,58,54,99,91,65,0.00,40.00,9,3,14,0.00
2013-4-16,82,68,60,63,61,59,99,80,49,0.00,40.00,8,2,13,0.00
2013-4-17,81,66,58,68,62,58,99,90,56,0.00,40.00,7,1,20,0.00
2013-4-18,81,68,57,68,61,57,99,82,50,0.00,40.00,7,2,16,0.00
2013-4-19,70,64,52,69,63,39,99,96,66,0.00,40.00,11,4,23,0.00
2013-4-20,71,55,45,40,32,24,74,43,26,0.00,40.00,13,5,25,0.00
2013-4-21,65,52,36,42,37,28,99,62,35,0.00,40.00,14,4,21,0.00
2013-4-22,65,54,43,42,40,35,92,61,40,0.00,40.00,11,4,19,0.00
2013-4-23,76,55,36,52,43,36,99,69,37,0.00,40.00,7,2,13,0.00
2013-4-24,75,60,46,62,54,44,99,82,54,0.00,40.00,11,4,22,0.00
2013-4-25,77,62,49,61,43,32,99,54,30,0.00,40.00,9,3,22,0.00
2013-4-26,74,57,38,52,42,32,99,62,33,0.00,40.00,10,2,16,0.00
2013-4-27,61,56,53,58,54,48,99,93,75,0.00,40.00,4,1,6,0.00
2013-4-28,54,53,51,54,52,-100,99,99,99,0.00,40.00,6,2,11,0.00
2013-4-29,76,62,54,62,57,53,99,85,54,0.00,40.00,7,2,14,0.00
2013-4-30,78,64,50,64,58,48,99,83,56,0.00,40.00,9,3,19,0.00
2013-5-1,68,62,58,61,58,57,99,87,70,0.00,40.00,12,5,19,0.00
2013-5-2,62,58,55,62,58,55,99,99,98,0.00,40.00,9,3,14,0.00
2013-5-3,65,59,56,59,56,52,99,90,73,0.00,40.00,11,4,21,0.00
2013-5-4,60,54,51,55,50,45,99,86,73,0.00,40.00,11,6,23,0.00
2013-5-5,54,51,48,53,51,48,99,99,99,0.00,40.00,11,5,19,0.00
2013-5-6,69,58,50,56,51,45,99,80,48,0.00,40.00,6,2,14,0.00
2013-5-7,74,57,43,57,49,41,99,80,41,0.00,40.00,8,1,14,0.00
2013-5-8,77,63,50,69,56,48,99,82,51,0.00,40.00,6,2,11,0.00
2013-5-9,83,67,53,68,59,52,99,78,42,0.00,40.00,6,2,14,0.00
2013-5-10,82,67,53,66,58,-100,99,78,50,0.00,40.00,9,2,21,0.00
2013-5-11,80,70,61,66,63,58,99,81,61,0.00,40.00,11,3,22,0.00
2013-5-12,75,64,49,59,45,-100,96,56,31,0.00,40.00,9,-4,21,0.00
2013-5-13,74,60,47,41,36,32,77,43,28,0.00,40.00,11,5,21,0.00
2013-5-14,75,60,40,51,42,-100,93,56,38,0.00,40.00,8,3,18,0.00
2013-5-15,90,73,55,66,59,50,99,66,42,0.00,40.00,9,3,16,0.00
2013-5-16,85,65,56,66,39,-100,99,74,42,0.00,40.00,7,2,13,0.00
2013-5-17,89,71,56,68,57,-100,99,74,43,0.00,40.00,7,1,14,0.00
2013-5-18,75,67,63,72,66,62,99,98,84,0.00,40.00,5,1,10,0.00
2013-5-19,79,70,65,74,68,65,99,93,74,0.00,40.00,7,1,11,0.00
2013-5-20,87,72,62,73,67,62,99,86,57,0.00,40.00,6,1,9,0.00
2013-5-21,92,75,62,73,67,61,99,80,44,0.00,40.00,6,2,13,0.00
2013-5-22,86,73,64,75,68,63,99,86,61,0.00,40.00,16,3,27,0.00
2013-5-23,82,69,63,73,66,59,99,92,67,0.00,40.00,11,2,16,0.00
2013-5-24,76,68,55,59,50,40,77,55,37,0.00,40.00,15,6,34,0.00
2013-5-25,80,63,42,49,43,35,99,56,29,0.00,40.00,9,3,21,0.00
2013-5-26,78,64,52,58,53,43,99,71,46,0.00,40.00,6,2,14,0.00
2013-5-27,87,69,51,65,56,50,99,70,41,0.00,40.00,5,2,11,0.00
2013-5-28,86,72,58,68,62,57,99,73,45,0.00,40.00,6,2,13,0.00
2013-5-29,83,69,60,67,63,59,99,84,56,0.00,40.00,4,2,11,0.00
2013-5-30,87,76,59,69,64,58,99,70,47,0.00,40.00,6,2,11,0.00
2013-5-31,89,75,63,71,66,61,99,78,47,0.00,40.00,5,2,13,0.00
2013-6-1,88,76,67,71,68,64,99,79,50,0.00,40.00,6,2,14,0.00
2013-6-2,81,72,67,75,68,-100,99,92,79,0.00,40.00,5,2,13,0.00
2013-6-3,85,74,65,74,69,65,99,86,61,0.00,40.00,5,1,14,0.00
2013-6-4,85,75,66,71,67,61,99,78,50,0.00,40.00,8,3,16,0.00
2013-6-5,83,73,68,74,70,67,99,89,73,0.00,40.00,9,3,16,0.00
2013-6-6,80,71,67,76,71,67,99,98,82,0.00,40.00,5,2,11,0.00
2013-6-7,89,72,67,77,70,67,99,94,61,0.00,40.00,6,2,16,0.00
2013-6-8,88,75,65,72,68,65,99,80,53,0.00,40.00,6,2,11,0.00
2013-6-9,87,73,65,75,69,65,99,91,56,0.00,40.00,8,1,20,0.00
2013-6-10,80,72,69,78,71,69,99,95,75,0.00,40.00,6,3,16,0.00
2013-6-11,92,79,68,75,70,66,99,77,47,0.00,40.00,6,2,14,0.00
2013-6-12,93,78,64,80,72,64,99,84,53,0.00,40.00,5,1,12,0.00
2013-6-13,94,80,69,76,71,64,99,75,49,0.00,40.00,11,3,23,0.00
2013-6-14,88,79,63,65,61,57,98,55,43,0.00,40.00,11,4,23,0.00
2013-6-15,87,72,56,67,61,56,99,73,45,0.00,40.00,6,2,14,0.00
2013-6-16,89,75,61,70,66,58,99,75,50,0.00,40.00,6,2,17,0.00
2013-6-17,87,75,68,77,72,63,99,90,68,0.00,40.00,7,2,19,0.00
2013-6-18,84,73,67,78,70,63,99,91,76,0.00,40.00,6,2,15,0.00
2013-6-19,84,75,67,70,68,64,99,79,56,0.00,40.00,9,2,11,0.00
2013-6-20,83,71,64,72,66,61,99,86,62,0.00,40.00,7,2,14,0.00
2013-6-22,90,82,69,69,64,58,98,56,37,0.00,40.00,6,2,10,0.00
2013-6-23,91,74,63,73,67,61,99,80,47,0.00,40.00,7,2,21,0.00
2013-6-24,90,77,68,76,70,67,96,82,51,0.00,40.00,4,1,11,0.00
2013-6-25,92,78,69,76,72,67,99,82,54,0.00,40.00,6,2,15,0.00
2013-6-26,85,74,68,79,72,67,99,93,77,0.00,40.00,4,1,11,0.00
2013-6-27,90,77,71,80,74,71,99,91,60,0.00,40.00,5,3,13,0.00
2013-6-28,99,81,69,77,71,65,99,75,43,0.00,40.00,8,2,15,0.00
2013-6-29,90,79,66,74,70,62,99,77,52,0.00,40.00,5,2,14,0.00
2013-6-30,89,77,70,75,72,69,99,87,58,0.00,40.00,5,2,14,0.00
2013-7-1,85,75,69,74,71,68,99,89,65,0.00,40.00,8,2,16,0.00
2013-7-2,83,73,69,77,72,68,99,95,77,0.00,40.00,7,2,16,0.00
2013-7-3,86,74,66,77,71,61,99,93,70,0.00,40.00,10,-9,21,0.00
2013-7-4,83,71,66,79,68,62,99,91,84,0.00,40.00,6,1,21,0.00
2013-7-5,89,74,69,77,70,65,99,88,60,0.00,40.00,13,1,28,0.00
2013-7-6,87,75,70,80,73,70,99,94,64,0.00,40.00,8,-18,16,0.00
2013-7-7,86,77,72,79,74,71,99,91,73,0.00,40.00,5,2,11,0.00
2013-7-8,89,76,72,78,70,-100,99,87,56,0.00,40.00,5,2,12,0.00
2013-7-9,89,73,69,74,69,66,95,87,57,0.00,40.00,4,1,8,0.00